createdAt,value
2018-03-27T00:01:08.295Z,8.50
2018-03-27T00:03:35.810Z,8.17
2018-03-27T00:06:03.293Z,7.73
2018-03-27T00:08:30.823Z,7.27
2018-03-27T00:10:58.320Z,7.73
2018-03-27T00:13:25.788Z,7.30
2018-03-27T00:15:53.291Z,8.00
2018-03-27T00:18:20.838Z,7.60
2018-03-27T00:20:48.353Z,8.07
2018-03-27T00:23:15.835Z,6.47
2018-03-27T00:25:43.331Z,7.33
2018-03-27T00:28:22.674Z,7.00
2018-03-27T00:31:01.892Z,7.23
2018-03-27T00:33:41.182Z,8.20
2018-03-27T00:36:20.567Z,7.40
2018-03-27T00:38:59.810Z,7.73
2018-03-27T00:44:35.367Z,7.10
2018-03-27T00:47:02.881Z,6.77
2018-03-27T00:49:31.132Z,7.23
2018-03-27T00:51:58.664Z,7.50
2018-03-27T00:54:26.262Z,7.77
2018-03-27T00:56:53.891Z,7.53
2018-03-27T00:59:21.448Z,7.87
2018-03-27T01:01:48.989Z,7.80
2018-03-27T01:04:16.515Z,7.93
2018-03-27T01:06:44.254Z,8.90
2018-03-27T01:09:11.768Z,8.53
2018-03-27T01:11:39.270Z,8.23
2018-03-27T01:14:06.735Z,9.77
2018-03-27T01:16:34.248Z,7.60
2018-03-27T01:19:01.733Z,8.57
2018-03-27T01:21:29.225Z,8.13
2018-03-27T01:23:57.487Z,7.40
2018-03-27T01:26:24.983Z,7.70
2018-03-27T01:28:52.458Z,8.83
2018-03-27T01:31:20.696Z,7.73
2018-03-27T01:33:48.974Z,9.00
2018-03-27T01:36:17.206Z,8.70
2018-03-27T01:38:45.291Z,8.10
2018-03-27T01:41:12.763Z,7.87
2018-03-27T01:43:40.259Z,7.30
2018-03-27T01:46:08.767Z,7.10
2018-03-27T01:48:36.296Z,6.93
2018-03-27T01:51:03.786Z,7.73
2018-03-27T01:53:31.267Z,7.20
2018-03-27T01:55:58.767Z,7.90
2018-03-27T01:58:26.270Z,8.73
2018-03-27T02:00:53.764Z,7.23
2018-03-27T02:03:22.018Z,7.53
2018-03-27T02:05:49.528Z,6.53
2018-03-27T02:08:16.992Z,7.20
2018-03-27T02:10:43.974Z,7.27
2018-03-27T02:13:17.096Z,8.47
2018-03-27T02:15:50.324Z,7.60
2018-03-27T02:18:23.405Z,8.03
2018-03-27T02:20:56.622Z,6.87
2018-03-27T02:23:41.966Z,8.07
2018-03-27T02:26:09.462Z,8.30
2018-03-27T02:28:36.943Z,8.67
2018-03-27T02:31:05.183Z,7.53
2018-03-27T02:33:32.657Z,8.03
2018-03-27T02:36:00.135Z,7.57
2018-03-27T02:38:27.644Z,7.33
2018-03-27T02:40:55.129Z,7.43
2018-03-27T02:43:22.598Z,7.87
2018-03-27T02:45:50.105Z,7.20
2018-03-27T02:48:17.588Z,7.03
2018-03-27T02:50:45.793Z,7.13
2018-03-27T02:53:14.044Z,7.70
2018-03-27T02:55:41.528Z,8.00
2018-03-27T02:58:09.032Z,8.23
2018-03-27T03:00:37.396Z,7.20
2018-03-27T03:03:04.924Z,7.60
2018-03-27T03:05:32.426Z,7.77
2018-03-27T03:07:59.897Z,7.90
2018-03-27T03:10:27.393Z,7.50
2018-03-27T03:12:54.890Z,8.37
2018-03-27T03:15:22.410Z,7.87
2018-03-27T03:17:49.872Z,7.80
2018-03-27T03:20:17.351Z,8.37
2018-03-27T03:22:44.864Z,9.17
2018-03-27T03:25:12.351Z,8.60
2018-03-27T03:27:40.583Z,7.80
2018-03-27T03:30:08.833Z,7.93
2018-03-27T03:32:36.332Z,7.67
2018-03-27T03:35:03.815Z,7.70
2018-03-27T03:37:32.058Z,9.13
2018-03-27T03:39:59.538Z,7.40
2018-03-27T03:42:27.787Z,9.07
2018-03-27T03:44:55.255Z,7.30
2018-03-27T03:47:22.995Z,7.47
2018-03-27T03:49:50.466Z,7.43
2018-03-27T03:52:17.972Z,8.10
2018-03-27T03:54:45.488Z,7.23
2018-03-27T03:57:13.567Z,8.17
2018-03-27T03:59:41.902Z,8.80
2018-03-27T04:02:09.431Z,8.23
2018-03-27T04:04:36.937Z,7.80
2018-03-27T04:07:04.411Z,7.97
2018-03-27T04:09:31.921Z,7.80
2018-03-27T04:11:59.413Z,7.90
2018-03-27T04:14:26.904Z,7.33
2018-03-27T04:16:55.396Z,8.43
2018-03-27T04:19:22.863Z,8.97
2018-03-27T04:21:50.360Z,7.77
2018-03-27T04:24:18.641Z,8.17
2018-03-27T04:26:46.133Z,8.03
2018-03-27T04:29:13.631Z,7.97
2018-03-27T04:31:42.045Z,8.90
2018-03-27T04:34:09.508Z,6.87
2018-03-27T04:36:37.011Z,8.60
2018-03-27T04:39:04.715Z,7.00
2018-03-27T04:41:32.196Z,7.77
2018-03-27T04:43:59.667Z,9.57
2018-03-27T04:46:28.933Z,7.07
2018-03-27T04:48:56.458Z,8.10
2018-03-27T04:51:23.955Z,8.13
2018-03-27T04:53:51.442Z,6.90
2018-03-27T04:56:19.707Z,7.57
2018-03-27T04:58:48.000Z,7.83
2018-03-27T05:01:15.525Z,7.67
2018-03-27T05:03:43.019Z,8.20
2018-03-27T05:06:10.576Z,8.87
2018-03-27T05:08:38.051Z,7.97
2018-03-27T05:11:05.559Z,8.77
2018-03-27T05:13:33.069Z,8.53
2018-03-27T05:16:00.826Z,8.00
2018-03-27T05:18:28.325Z,7.03
2018-03-27T05:20:55.802Z,8.43
2018-03-27T05:23:23.283Z,7.93
2018-03-27T05:25:51.525Z,9.73
2018-03-27T05:28:20.843Z,10.00
2018-03-27T05:30:49.120Z,8.03
2018-03-27T05:33:17.394Z,8.37
2018-03-27T05:35:44.878Z,9.13
2018-03-27T05:38:12.398Z,8.77
2018-03-27T05:40:40.657Z,8.33
2018-03-27T05:43:08.184Z,8.07
2018-03-27T05:45:35.680Z,8.23
2018-03-27T05:48:03.183Z,7.77
2018-03-27T05:50:32.232Z,7.90
2018-03-27T05:52:59.716Z,10.33
2018-03-27T05:55:27.231Z,9.77
2018-03-27T05:57:54.735Z,9.90
2018-03-27T06:00:22.216Z,8.83
2018-03-27T06:02:49.801Z,9.40
2018-03-27T06:05:17.289Z,7.70
2018-03-27T06:07:44.783Z,7.60
2018-03-27T06:10:12.298Z,7.67
2018-03-27T06:12:39.766Z,7.93
2018-03-27T06:15:07.532Z,7.13
2018-03-27T06:17:35.031Z,6.60
2018-03-27T06:20:02.546Z,7.37
2018-03-27T06:22:30.040Z,7.63
2018-03-27T06:24:57.546Z,7.37
2018-03-27T06:27:25.096Z,7.10
2018-03-27T06:29:52.572Z,7.30
2018-03-27T06:32:20.074Z,7.37
2018-03-27T06:34:47.762Z,7.73
2018-03-27T06:37:15.241Z,5.93
2018-03-27T06:39:42.776Z,7.50
2018-03-27T06:42:10.343Z,7.47
2018-03-27T06:44:38.530Z,7.30
2018-03-27T06:47:06.067Z,7.93
2018-03-27T06:49:33.571Z,7.83
2018-03-27T06:52:01.059Z,7.60
2018-03-27T06:54:28.626Z,6.93
2018-03-27T06:56:56.667Z,7.00
2018-03-27T06:59:24.153Z,8.67
2018-03-27T07:01:51.647Z,6.53
2018-03-27T07:04:22.766Z,7.70
2018-03-27T07:06:50.255Z,7.13
2018-03-27T07:09:17.780Z,7.43
2018-03-27T07:11:45.272Z,8.50
2018-03-27T07:14:12.766Z,8.00
2018-03-27T07:16:41.039Z,8.77
2018-03-27T07:19:08.563Z,9.13
2018-03-27T07:21:36.060Z,7.63
2018-03-27T07:24:04.308Z,7.63
2018-03-27T07:26:32.063Z,8.00
2018-03-27T07:28:59.566Z,8.27
2018-03-27T07:31:27.059Z,8.27
2018-03-27T07:33:54.559Z,8.23
2018-03-27T07:36:22.039Z,8.77
2018-03-27T07:38:49.517Z,8.30
2018-03-27T07:41:16.991Z,9.63
2018-03-27T07:43:44.475Z,8.40
2018-03-27T07:46:11.991Z,9.30
2018-03-27T07:48:39.462Z,8.73
2018-03-27T07:51:06.946Z,8.73
2018-03-27T07:53:34.430Z,10.07
2018-03-27T07:56:01.920Z,9.83
2018-03-27T07:58:29.471Z,8.50
2018-03-27T08:00:56.942Z,8.50
2018-03-27T08:03:24.413Z,8.33
2018-03-27T08:05:51.909Z,9.20
2018-03-27T08:08:19.386Z,10.20
2018-03-27T08:10:46.895Z,9.67
2018-03-27T08:13:14.333Z,10.07
2018-03-27T08:15:41.819Z,12.57
2018-03-27T08:18:09.320Z,11.60
2018-03-27T08:20:36.809Z,11.63
2018-03-27T08:23:04.309Z,13.40
2018-03-27T08:25:32.576Z,11.70
2018-03-27T08:28:00.058Z,11.30
2018-03-27T08:30:28.419Z,11.50
2018-03-27T08:32:55.921Z,10.37
2018-03-27T08:35:23.433Z,10.40
2018-03-27T08:37:51.669Z,11.83
2018-03-27T08:40:19.954Z,9.43
2018-03-27T08:42:47.463Z,10.30
2018-03-27T08:45:14.934Z,9.27
2018-03-27T08:47:42.447Z,10.10
2018-03-27T08:50:09.953Z,8.57
2018-03-27T08:52:37.433Z,8.77
2018-03-27T08:55:04.972Z,8.30
2018-03-27T08:57:32.457Z,7.90
2018-03-27T08:59:59.942Z,7.47
2018-03-27T09:02:28.205Z,7.03
2018-03-27T09:04:55.688Z,7.97
2018-03-27T09:07:23.168Z,8.27
2018-03-27T09:09:50.652Z,7.67
2018-03-27T09:12:18.163Z,7.97
2018-03-27T09:14:46.407Z,8.53
2018-03-27T09:17:14.659Z,8.67
2018-03-27T09:19:42.159Z,9.70
2018-03-27T09:22:09.646Z,8.73
2018-03-27T09:24:37.132Z,9.80
2018-03-27T09:27:04.604Z,10.60
2018-03-27T09:29:32.068Z,10.50
2018-03-27T09:31:59.554Z,12.00
2018-03-27T09:34:27.014Z,10.57
2018-03-27T09:36:54.525Z,11.57
2018-03-27T09:39:21.989Z,10.67
2018-03-27T09:41:49.497Z,12.50
2018-03-27T09:44:17.740Z,11.87
2018-03-27T09:46:45.249Z,11.87
2018-03-27T09:49:12.742Z,11.80
2018-03-27T09:51:40.274Z,11.40
2018-03-27T09:54:07.778Z,9.97
2018-03-27T09:56:35.257Z,9.93
2018-03-27T09:59:03.752Z,11.90
2018-03-27T10:01:31.467Z,10.87
2018-03-27T10:03:58.950Z,12.67
2018-03-27T10:06:27.206Z,11.40
2018-03-27T10:08:54.738Z,12.53
2018-03-27T10:11:22.170Z,11.37
2018-03-27T10:13:49.669Z,9.57
2018-03-27T10:16:17.182Z,10.33
2018-03-27T10:18:44.695Z,12.37
2018-03-27T10:21:12.502Z,12.33
2018-03-27T10:23:39.976Z,11.37
2018-03-27T10:26:07.457Z,12.80
2018-03-27T10:28:34.941Z,12.97
2018-03-27T10:31:02.447Z,12.30
2018-03-27T10:33:29.940Z,13.90
2018-03-27T10:35:57.431Z,13.30
2018-03-27T10:38:25.692Z,13.43
2018-03-27T10:40:53.195Z,12.03
2018-03-27T10:43:20.738Z,12.77
2018-03-27T10:45:48.207Z,12.70
2018-03-27T10:48:15.673Z,13.47
2018-03-27T10:50:43.153Z,12.80
2018-03-27T10:53:10.888Z,14.10
2018-03-27T10:55:38.413Z,12.60
2018-03-27T10:58:05.873Z,14.83
2018-03-27T11:00:34.124Z,13.03
2018-03-27T11:03:01.630Z,13.17
2018-03-27T11:05:29.149Z,14.60
2018-03-27T11:07:56.659Z,15.37
2018-03-27T11:10:24.137Z,15.10
2018-03-27T11:12:51.614Z,15.27
2018-03-27T11:15:19.124Z,15.10
2018-03-27T11:17:46.616Z,15.90
2018-03-27T11:20:14.142Z,15.27
2018-03-27T11:22:41.676Z,17.00
2018-03-27T11:25:09.156Z,16.40
2018-03-27T11:27:36.644Z,18.70
2018-03-27T11:30:04.125Z,17.27
2018-03-27T11:32:31.621Z,15.97
2018-03-27T11:34:59.093Z,18.03
2018-03-27T11:37:26.581Z,18.53
2018-03-27T11:39:54.099Z,16.50
2018-03-27T11:42:21.602Z,18.80
2018-03-27T11:44:49.118Z,18.73
2018-03-27T11:47:16.589Z,18.60
2018-03-27T11:49:44.067Z,16.80
2018-03-27T11:52:11.576Z,20.47
2018-03-27T11:54:39.085Z,19.30
2018-03-27T11:57:06.592Z,16.53
2018-03-27T11:59:34.073Z,16.97
2018-03-27T12:02:01.556Z,18.50
2018-03-27T12:04:29.065Z,14.50
2018-03-27T12:06:56.546Z,16.40
2018-03-27T12:09:24.077Z,17.90
2018-03-27T12:11:52.096Z,19.00
2018-03-27T12:14:19.563Z,16.43
2018-03-27T12:16:47.045Z,18.17
2018-03-27T12:19:15.463Z,18.20
2018-03-27T12:21:42.969Z,17.83
2018-03-27T12:24:11.394Z,20.73
2018-03-27T12:26:38.887Z,18.17
2018-03-27T12:29:06.377Z,18.83
2018-03-27T12:31:34.668Z,19.30
2018-03-27T12:34:02.162Z,18.63
2018-03-27T12:36:29.682Z,19.53
2018-03-27T12:38:57.133Z,20.83
2018-03-27T12:41:24.627Z,19.83
2018-03-27T12:43:52.124Z,19.73
2018-03-27T12:46:19.606Z,22.70
2018-03-27T12:48:47.854Z,20.23
2018-03-27T12:51:15.335Z,21.50
2018-03-27T12:53:43.814Z,22.40
2018-03-27T12:56:12.075Z,23.30
2018-03-27T12:58:39.555Z,24.40
2018-03-27T13:01:07.041Z,24.53
2018-03-27T13:03:34.527Z,21.43
2018-03-27T13:06:02.027Z,22.67
2018-03-27T13:08:30.269Z,24.47
2018-03-27T13:10:57.756Z,22.10
2018-03-27T13:13:25.240Z,19.13
2018-03-27T13:15:52.717Z,20.47
2018-03-27T13:18:20.206Z,22.73
2018-03-27T13:20:47.665Z,21.67
2018-03-27T13:23:15.943Z,20.50
2018-03-27T13:25:43.414Z,20.13
2018-03-27T13:28:10.903Z,21.17
2018-03-27T13:30:38.401Z,21.23
2018-03-27T13:33:05.877Z,20.13
2018-03-27T13:35:41.023Z,20.47
2018-03-27T13:38:08.503Z,19.80
2018-03-27T13:40:35.995Z,18.03
2018-03-27T13:43:03.493Z,16.93
2018-03-27T13:45:31.771Z,17.13
2018-03-27T13:47:59.270Z,17.00
2018-03-27T13:50:26.767Z,15.80
2018-03-27T13:52:54.250Z,17.50
2018-03-27T13:55:21.770Z,13.97
2018-03-27T13:57:49.263Z,14.63
2018-03-27T14:00:17.585Z,13.80
2018-03-27T14:02:45.016Z,13.33
2018-03-27T14:05:12.473Z,14.20
2018-03-27T14:07:39.973Z,16.07
2018-03-27T14:10:07.460Z,15.07
2018-03-27T14:12:34.947Z,14.10
2018-03-27T14:15:02.466Z,14.47
2018-03-27T14:17:29.948Z,14.83
2018-03-27T14:19:57.452Z,16.03
2018-03-27T14:22:24.934Z,17.10
2018-03-27T14:24:52.404Z,16.17
2018-03-27T14:27:21.309Z,17.33
2018-03-27T14:29:48.773Z,15.93
2018-03-27T14:32:16.299Z,16.43
2018-03-27T14:34:43.781Z,17.97
2018-03-27T14:37:11.270Z,15.77
2018-03-27T14:39:38.740Z,18.77
2018-03-27T14:42:06.233Z,16.70
2018-03-27T14:44:33.751Z,18.27
2018-03-27T14:47:01.461Z,14.83
2018-03-27T14:49:29.749Z,17.37
2018-03-27T14:51:58.020Z,17.83
2018-03-27T14:54:25.570Z,16.03
2018-03-27T14:56:53.063Z,17.23
2018-03-27T14:59:20.551Z,16.37
2018-03-27T15:01:48.077Z,19.53
2018-03-27T15:04:15.560Z,19.20
2018-03-27T15:06:43.063Z,18.93
2018-03-27T15:09:11.341Z,18.60
2018-03-27T15:11:39.602Z,19.20
2018-03-27T15:14:07.134Z,17.67
2018-03-27T15:16:34.639Z,18.83
2018-03-27T15:19:02.132Z,19.63
2018-03-27T15:21:29.633Z,19.97
2018-03-27T15:23:57.112Z,18.67
2018-03-27T15:26:24.635Z,21.07
2018-03-27T15:28:52.164Z,19.70
2018-03-27T15:31:19.648Z,18.00
2018-03-27T15:33:47.148Z,20.93
2018-03-27T15:36:14.638Z,23.27
2018-03-27T15:38:42.150Z,18.50
2018-03-27T15:41:10.400Z,20.47
2018-03-27T15:43:38.648Z,18.87
2018-03-27T15:46:06.145Z,18.60
2018-03-27T15:48:33.638Z,25.87
2018-03-27T15:51:01.161Z,32.77
2018-03-27T15:53:29.416Z,28.40
2018-03-27T15:55:56.897Z,22.60
2018-03-27T15:58:24.450Z,17.40
2018-03-27T16:00:52.753Z,18.30
2018-03-27T16:03:20.270Z,18.97
2018-03-27T16:05:47.937Z,17.90
2018-03-27T16:08:22.021Z,17.47
2018-03-27T16:10:49.556Z,15.30
2018-03-27T16:13:17.096Z,18.67
2018-03-27T16:15:44.552Z,18.73
2018-03-27T16:18:12.290Z,18.33
2018-03-27T16:20:39.801Z,18.13
2018-03-27T16:23:08.044Z,21.00
2018-03-27T16:25:36.312Z,18.90
2018-03-27T16:28:04.574Z,17.63
2018-03-27T16:30:32.086Z,51.47
2018-03-27T16:32:59.609Z,18.00
2018-03-27T16:35:27.138Z,16.97
2018-03-27T16:37:54.665Z,20.80
2018-03-27T16:40:22.143Z,18.00
2018-03-27T16:42:49.646Z,19.43
2018-03-27T16:45:17.895Z,18.90
2018-03-27T16:47:45.407Z,17.67
2018-03-27T16:50:12.916Z,20.43
2018-03-27T16:52:40.410Z,17.30
2018-03-27T16:55:07.906Z,17.07
2018-03-27T16:57:35.403Z,17.60
2018-03-27T17:00:02.929Z,17.60
2018-03-27T17:02:30.693Z,21.13
2018-03-27T17:04:58.543Z,17.90
2018-03-27T17:07:26.052Z,20.13
2018-03-27T17:09:53.581Z,21.57
2018-03-27T17:12:21.103Z,20.47
2018-03-27T17:14:48.585Z,19.60
2018-03-27T17:20:02.841Z,21.67
2018-03-27T17:22:30.330Z,21.10
2018-03-27T17:24:57.837Z,21.10
2018-03-27T17:27:31.913Z,20.70
2018-03-27T17:29:59.417Z,21.17
2018-03-27T17:32:27.444Z,22.17
2018-03-27T17:34:55.741Z,15.87
2018-03-27T17:37:23.254Z,19.20
2018-03-27T17:39:50.753Z,18.10
2018-03-27T17:42:18.282Z,21.17
2018-03-27T17:44:45.769Z,20.57
2018-03-27T17:47:14.034Z,20.33
2018-03-27T17:49:42.304Z,18.33
2018-03-27T17:52:10.588Z,17.43
2018-03-27T17:54:38.897Z,17.87
2018-03-27T17:57:06.388Z,17.27
2018-03-27T17:59:33.878Z,21.00
2018-03-27T18:02:01.429Z,19.30
2018-03-27T18:04:29.730Z,20.60
2018-03-27T18:06:57.626Z,20.70
2018-03-27T18:09:25.119Z,18.20
2018-03-27T18:11:52.619Z,19.67
2018-03-27T18:14:20.141Z,18.83
2018-03-27T18:16:47.728Z,17.53
2018-03-27T18:19:15.249Z,18.00
2018-03-27T18:21:42.756Z,20.90
2018-03-27T18:24:10.249Z,19.00
2018-03-27T18:26:37.762Z,20.47
2018-03-27T18:29:05.258Z,21.23
2018-03-27T18:31:32.777Z,16.33
2018-03-27T18:34:00.278Z,20.00
2018-03-27T18:36:27.767Z,21.20
2018-03-27T18:38:56.042Z,19.80
2018-03-27T18:41:23.518Z,20.50
2018-03-27T18:43:51.063Z,17.90
2018-03-27T18:46:18.602Z,18.33
2018-03-27T18:48:46.092Z,16.67
2018-03-27T18:51:14.379Z,17.97
2018-03-27T18:53:41.901Z,18.07
2018-03-27T18:56:09.494Z,19.37
2018-03-27T18:58:37.000Z,14.40
2018-03-27T19:01:05.255Z,16.27
2018-03-27T19:03:32.764Z,16.33
2018-03-27T19:06:00.271Z,15.73
2018-03-27T19:08:27.771Z,17.00
2018-03-27T19:10:55.273Z,15.80
2018-03-27T19:13:22.757Z,15.17
2018-03-27T19:15:50.258Z,10.73
2018-03-27T19:18:17.764Z,11.80
2018-03-27T19:20:45.294Z,16.87
2018-03-27T19:23:12.851Z,14.77
2018-03-27T19:25:40.378Z,11.60
2018-03-27T19:28:07.927Z,13.37
2018-03-27T19:30:35.410Z,15.10
2018-03-27T19:33:02.929Z,13.07
2018-03-27T19:35:30.422Z,14.00
2018-03-27T19:37:58.710Z,10.80
2018-03-27T19:40:27.007Z,13.20
2018-03-27T19:42:54.548Z,13.77
2018-03-27T19:45:23.327Z,12.60
2018-03-27T19:47:51.668Z,12.60
2018-03-27T19:50:19.341Z,14.23
2018-03-27T19:52:47.826Z,13.10
2018-03-27T19:55:15.363Z,10.37
2018-03-27T19:57:43.773Z,12.23
2018-03-27T20:00:11.295Z,12.57
2018-03-27T20:02:38.833Z,10.83
2018-03-27T20:05:06.375Z,13.33
2018-03-27T20:07:33.936Z,11.73
2018-03-27T20:10:01.470Z,10.40
2018-03-27T20:12:29.777Z,10.20
2018-03-27T20:15:11.718Z,12.70
2018-03-27T20:17:40.259Z,12.33
2018-03-27T20:20:07.852Z,12.93
2018-03-27T20:22:42.426Z,11.97
2018-03-27T20:25:10.777Z,12.73
2018-03-27T20:27:38.527Z,11.87
2018-03-27T20:30:07.102Z,12.53
2018-03-27T20:32:38.157Z,12.30
2018-03-27T20:35:06.454Z,11.47
2018-03-27T20:37:33.998Z,11.17
2018-03-27T20:40:01.764Z,10.97
2018-03-27T20:42:30.001Z,11.67
2018-03-27T20:44:57.842Z,9.57
2018-03-27T20:47:25.412Z,10.00
2018-03-27T20:49:53.228Z,11.03
2018-03-27T20:52:20.734Z,9.77
2018-03-27T20:54:48.252Z,8.83
2018-03-27T20:57:15.783Z,10.33
2018-03-27T20:59:43.290Z,10.63
2018-03-27T21:02:11.581Z,10.93
2018-03-27T21:04:39.095Z,10.70
2018-03-27T21:07:06.822Z,9.80
2018-03-27T21:09:34.366Z,10.30
2018-03-27T21:12:01.881Z,10.47
2018-03-27T21:14:29.392Z,9.80
2018-03-27T21:16:56.901Z,10.40
2018-03-27T21:19:24.449Z,10.13
2018-03-27T21:21:52.739Z,10.47
2018-03-27T21:24:20.236Z,10.93
2018-03-27T21:26:47.752Z,9.73
2018-03-27T21:29:16.019Z,9.23
2018-03-27T21:31:43.555Z,10.90
2018-03-27T21:34:11.099Z,11.20
2018-03-27T21:36:38.662Z,12.10
2018-03-27T21:39:06.178Z,13.00
2018-03-27T21:41:34.424Z,12.87
2018-03-27T21:44:01.906Z,12.07
2018-03-27T21:46:30.211Z,12.13
2018-03-27T21:48:57.730Z,11.07
2018-03-27T21:51:25.549Z,9.73
2018-03-27T21:53:53.030Z,12.00
2018-03-27T21:56:20.524Z,11.00
2018-03-27T21:58:48.033Z,10.77
2018-03-27T22:01:15.508Z,9.90
2018-03-27T22:03:43.014Z,10.43
2018-03-27T22:06:10.501Z,10.50
2018-03-27T22:08:37.999Z,10.07
2018-03-27T22:11:05.839Z,11.80
2018-03-27T22:13:33.326Z,10.23
2018-03-27T22:16:01.601Z,9.80
2018-03-27T22:18:29.910Z,10.50
2018-03-27T22:20:57.745Z,9.50
2018-03-27T22:23:25.233Z,10.47
2018-03-27T22:25:52.720Z,9.87
2018-03-27T22:28:20.233Z,9.57
2018-03-27T22:30:48.475Z,11.00
2018-03-27T22:33:15.962Z,11.00
2018-03-27T22:35:44.243Z,10.43
2018-03-27T22:38:11.737Z,10.33
2018-03-27T22:40:40.203Z,10.33
2018-03-27T22:43:07.712Z,10.57
2018-03-27T22:45:35.957Z,10.27
2018-03-27T22:48:03.475Z,10.07
2018-03-27T22:50:31.314Z,9.60
2018-03-27T22:52:59.320Z,10.30
2018-03-27T22:55:27.345Z,9.60
2018-03-27T22:57:56.906Z,8.60
2018-03-27T23:00:24.453Z,10.10
2018-03-27T23:02:52.001Z,10.20
2018-03-27T23:05:20.413Z,9.63
2018-03-27T23:07:47.916Z,9.13
2018-03-27T23:10:15.404Z,11.30
2018-03-27T23:12:42.916Z,9.77
2018-03-27T23:15:10.422Z,9.50
2018-03-27T23:17:38.926Z,11.73
2018-03-27T23:20:06.456Z,10.03
2018-03-27T23:22:33.923Z,10.93
2018-03-27T23:25:01.525Z,9.73
2018-03-27T23:27:29.098Z,10.53
2018-03-27T23:29:56.624Z,10.17
2018-03-27T23:32:24.114Z,10.00
2018-03-27T23:34:51.687Z,10.70
2018-03-27T23:37:19.213Z,9.53
2018-03-27T23:39:46.748Z,10.73
2018-03-27T23:42:14.238Z,10.57
2018-03-27T23:44:41.725Z,9.20
2018-03-27T23:47:09.254Z,10.57
2018-03-27T23:49:36.764Z,10.10
2018-03-27T23:52:04.266Z,12.47
2018-03-27T23:54:31.811Z,10.80
2018-03-27T23:56:59.327Z,11.93
2018-03-27T23:59:26.858Z,10.73
